sensor_id;sensor_type;location;lat;lon;timestamp;pressure;altitude;pressure_sealevel;temperature;humidity
18569;BME280;14780;48.316;-1.050;2022-08-05T00:01:45;99330.81;;;26.42;49.31
18569;BME280;14780;48.316;-1.050;2022-08-05T00:04:30;99323.69;;;26.41;49.13
18569;BME280;14780;48.316;-1.050;2022-08-05T00:07:14;99328.63;;;26.39;49.27
18569;BME280;14780;48.316;-1.050;2022-08-05T00:09:59;99337.16;;;26.38;49.37
18569;BME280;14780;48.316;-1.050;2022-08-05T00:12:44;99336.34;;;26.37;49.50
18569;BME280;14780;48.316;-1.050;2022-08-05T00:15:29;99334.97;;;26.35;49.38
18569;BME280;14780;48.316;-1.050;2022-08-05T00:18:13;99325.91;;;26.34;49.44
18569;BME280;14780;48.316;-1.050;2022-08-05T00:20:58;99338.81;;;26.34;49.39
18569;BME280;14780;48.316;-1.050;2022-08-05T00:23:45;99327.28;;;26.32;49.53
18569;BME280;14780;48.316;-1.050;2022-08-05T00:26:30;99335.81;;;26.30;49.72
18569;BME280;14780;48.316;-1.050;2022-08-05T00:29:15;99337.75;;;26.30;49.71
18569;BME280;14780;48.316;-1.050;2022-08-05T00:31:59;99334.16;;;26.29;49.70
18569;BME280;14780;48.316;-1.050;2022-08-05T00:34:45;99338.84;;;26.29;49.62
18569;BME280;14780;48.316;-1.050;2022-08-05T00:37:30;99334.75;;;26.26;49.66
18569;BME280;14780;48.316;-1.050;2022-08-05T00:40:15;99338.59;;;26.25;49.58
18569;BME280;14780;48.316;-1.050;2022-08-05T00:43:01;99334.22;;;26.24;49.65
18569;BME280;14780;48.316;-1.050;2022-08-05T00:45:46;99330.63;;;26.24;49.76
18569;BME280;14780;48.316;-1.050;2022-08-05T00:48:31;99330.94;;;26.22;49.69
18569;BME280;14780;48.316;-1.050;2022-08-05T00:51:16;99337.50;;;26.21;49.73
18569;BME280;14780;48.316;-1.050;2022-08-05T00:54:02;99344.09;;;26.20;49.69
18569;BME280;14780;48.316;-1.050;2022-08-05T00:56:46;99346.84;;;26.20;49.91
18569;BME280;14780;48.316;-1.050;2022-08-05T00:59:31;99349.03;;;26.18;49.83
18569;BME280;14780;48.316;-1.050;2022-08-05T01:02:16;99341.91;;;26.17;49.91
18569;BME280;14780;48.316;-1.050;2022-08-05T01:05:01;99340.28;;;26.16;49.90
18569;BME280;14780;48.316;-1.050;2022-08-05T01:07:45;99344.13;;;26.15;50.04
18569;BME280;14780;48.316;-1.050;2022-08-05T01:10:39;99349.31;;;26.17;49.92
18569;BME280;14780;48.316;-1.050;2022-08-05T01:19:52;99341.94;;;26.12;50.06
18569;BME280;14780;48.316;-1.050;2022-08-05T01:23:05;99345.47;;;26.18;49.91
18569;BME280;14780;48.316;-1.050;2022-08-05T01:26:39;99345.19;;;26.19;49.52
18569;BME280;14780;48.316;-1.050;2022-08-05T01:29:39;99351.53;;;26.10;50.06
18569;BME280;14780;48.316;-1.050;2022-08-05T01:32:26;99352.91;;;26.07;50.08
18569;BME280;14780;48.316;-1.050;2022-08-05T01:35:24;99346.06;;;26.10;50.07
18569;BME280;14780;48.316;-1.050;2022-08-05T01:38:11;99353.50;;;26.04;50.22
18569;BME280;14780;48.316;-1.050;2022-08-05T01:40:58;99343.63;;;26.03;50.28
18569;BME280;14780;48.316;-1.050;2022-08-05T01:43:44;99340.34;;;26.01;50.28
18569;BME280;14780;48.316;-1.050;2022-08-05T01:46:31;99344.72;;;26.02;50.41
18569;BME280;14780;48.316;-1.050;2022-08-05T01:49:19;99340.34;;;26.01;50.13
18569;BME280;14780;48.316;-1.050;2022-08-05T01:52:05;99342.53;;;25.99;50.18
18569;BME280;14780;48.316;-1.050;2022-08-05T01:54:54;99349.66;;;26.00;50.33
18569;BME280;14780;48.316;-1.050;2022-08-05T01:57:44;99348.31;;;25.98;50.41
18569;BME280;14780;48.316;-1.050;2022-08-05T02:00:31;99352.44;;;25.95;50.35
18569;BME280;14780;48.316;-1.050;2022-08-05T02:03:24;99348.84;;;25.95;50.36
18569;BME280;14780;48.316;-1.050;2022-08-05T02:06:11;99349.13;;;25.93;50.37
18569;BME280;14780;48.316;-1.050;2022-08-05T02:08:56;99345.59;;;25.93;50.38
18569;BME280;14780;48.316;-1.050;2022-08-05T02:12:03;99355.69;;;26.02;50.11
18569;BME280;14780;48.316;-1.050;2022-08-05T02:18:11;99352.69;;;25.94;50.31
18569;BME280;14780;48.316;-1.050;2022-08-05T02:21:47;99352.16;;;25.92;50.41
18569;BME280;14780;48.316;-1.050;2022-08-05T02:24:17;99357.91;;;25.90;50.52
18569;BME280;14780;48.316;-1.050;2022-08-05T02:27:05;99358.47;;;25.87;50.58
18569;BME280;14780;48.316;-1.050;2022-08-05T02:29:53;99354.09;;;25.86;50.59
18569;BME280;14780;48.316;-1.050;2022-08-05T02:32:40;99357.91;;;25.85;50.68
18569;BME280;14780;48.316;-1.050;2022-08-05T02:35:27;99355.16;;;25.85;50.68
18569;BME280;14780;48.316;-1.050;2022-08-05T02:38:13;99353.53;;;25.84;50.75
18569;BME280;14780;48.316;-1.050;2022-08-05T02:40:58;99348.34;;;25.83;50.70
18569;BME280;14780;48.316;-1.050;2022-08-05T02:43:46;99355.47;;;25.84;50.71
18569;BME280;14780;48.316;-1.050;2022-08-05T02:46:32;99354.09;;;25.81;50.72
18569;BME280;14780;48.316;-1.050;2022-08-05T02:49:17;99356.81;;;25.81;50.73
18569;BME280;14780;48.316;-1.050;2022-08-05T02:52:08;99354.34;;;25.80;50.66
18569;BME280;14780;48.316;-1.050;2022-08-05T02:54:54;99361.78;;;25.79;50.98
18569;BME280;14780;48.316;-1.050;2022-08-05T02:57:39;99363.94;;;25.77;50.71
18569;BME280;14780;48.316;-1.050;2022-08-05T03:00:24;99369.44;;;25.77;50.81
18569;BME280;14780;48.316;-1.050;2022-08-05T03:03:12;99368.63;;;25.77;50.75
18569;BME280;14780;48.316;-1.050;2022-08-05T03:05:59;99368.63;;;25.77;50.77
18569;BME280;14780;48.316;-1.050;2022-08-05T03:08:44;99367.25;;;25.74;50.90
18569;BME280;14780;48.316;-1.050;2022-08-05T03:11:29;99366.16;;;25.75;50.93
18569;BME280;14780;48.316;-1.050;2022-08-05T03:14:14;99372.75;;;25.74;50.88
18569;BME280;14780;48.316;-1.050;2022-08-05T03:16:59;99368.38;;;25.73;50.95
18569;BME280;14780;48.316;-1.050;2022-08-05T03:19:44;99372.22;;;25.72;50.89
18569;BME280;14780;48.316;-1.050;2022-08-05T03:22:28;99369.75;;;25.71;51.07
18569;BME280;14780;48.316;-1.050;2022-08-05T03:25:13;99364.25;;;25.71;50.94
18569;BME280;14780;48.316;-1.050;2022-08-05T03:27:59;99362.63;;;25.70;51.04
18569;BME280;14780;48.316;-1.050;2022-08-05T03:30:46;99367.25;;;25.69;51.04
18569;BME280;14780;48.316;-1.050;2022-08-05T03:33:32;99368.38;;;25.68;50.83
18569;BME280;14780;48.316;-1.050;2022-08-05T03:36:17;99364.00;;;25.67;51.02
18569;BME280;14780;48.316;-1.050;2022-08-05T03:39:06;99366.47;;;25.69;51.11
18569;BME280;14780;48.316;-1.050;2022-08-05T03:41:51;99362.34;;;25.66;51.16
18569;BME280;14780;48.316;-1.050;2022-08-05T03:44:35;99359.63;;;25.66;50.99
18569;BME280;14780;48.316;-1.050;2022-08-05T03:47:20;99352.50;;;25.65;51.01
18569;BME280;14780;48.316;-1.050;2022-08-05T03:50:05;99365.63;;;25.63;51.12
18569;BME280;14780;48.316;-1.050;2022-08-05T03:53:05;99369.47;;;25.67;50.90
18569;BME280;14780;48.316;-1.050;2022-08-05T03:59:16;99360.72;;;25.65;50.93
18569;BME280;14780;48.316;-1.050;2022-08-05T04:02:04;99369.75;;;25.61;51.11
18569;BME280;14780;48.316;-1.050;2022-08-05T04:04:50;99364.56;;;25.59;51.29
18569;BME280;14780;48.316;-1.050;2022-08-05T04:07:40;99369.50;;;25.57;51.15
18569;BME280;14780;48.316;-1.050;2022-08-05T04:10:26;99365.66;;;25.58;51.25
18569;BME280;14780;48.316;-1.050;2022-08-05T04:13:12;99373.31;;;25.56;51.14
18569;BME280;14780;48.316;-1.050;2022-08-05T04:15:57;99382.63;;;25.55;51.32
18569;BME280;14780;48.316;-1.050;2022-08-05T04:18:44;99379.63;;;25.57;51.13
18569;BME280;14780;48.316;-1.050;2022-08-05T04:21:30;99373.88;;;25.53;51.27
18569;BME280;14780;48.316;-1.050;2022-08-05T04:24:15;99380.47;;;25.52;51.15
18569;BME280;14780;48.316;-1.050;2022-08-05T04:27:00;99384.00;;;25.53;51.41
18569;BME280;14780;48.316;-1.050;2022-08-05T04:29:45;99376.09;;;25.51;51.30
18569;BME280;14780;48.316;-1.050;2022-08-05T04:32:30;99382.38;;;25.52;51.33
18569;BME280;14780;48.316;-1.050;2022-08-05T04:35:15;99374.44;;;25.50;51.15
18569;BME280;14780;48.316;-1.050;2022-08-05T04:38:00;99385.41;;;25.50;51.17
18569;BME280;14780;48.316;-1.050;2022-08-05T04:40:45;99381.00;;;25.49;51.53
18569;BME280;14780;48.316;-1.050;2022-08-05T04:43:29;99389.22;;;25.49;51.42
18569;BME280;14780;48.316;-1.050;2022-08-05T04:46:14;99389.50;;;25.48;51.35
18569;BME280;14780;48.316;-1.050;2022-08-05T04:48:58;99385.94;;;25.47;51.38
18569;BME280;14780;48.316;-1.050;2022-08-05T04:51:43;99387.56;;;25.48;51.37
18569;BME280;14780;48.316;-1.050;2022-08-05T04:54:28;99396.91;;;25.47;51.46
18569;BME280;14780;48.316;-1.050;2022-08-05T04:57:13;99389.78;;;25.46;51.50
18569;BME280;14780;48.316;-1.050;2022-08-05T04:59:57;99401.56;;;25.47;51.40
18569;BME280;14780;48.316;-1.050;2022-08-05T05:02:42;99399.09;;;25.45;51.43
18569;BME280;14780;48.316;-1.050;2022-08-05T05:05:27;99399.09;;;25.45;51.44
18569;BME280;14780;48.316;-1.050;2022-08-05T05:08:12;99392.78;;;25.45;51.46
18569;BME280;14780;48.316;-1.050;2022-08-05T05:10:58;99401.84;;;25.45;51.44
18569;BME280;14780;48.316;-1.050;2022-08-05T05:13:42;99407.31;;;25.45;51.59
18569;BME280;14780;48.316;-1.050;2022-08-05T05:16:27;99413.59;;;25.46;51.50
18569;BME280;14780;48.316;-1.050;2022-08-05T05:19:12;99409.22;;;25.45;51.60
18569;BME280;14780;48.316;-1.050;2022-08-05T05:21:57;99412.25;;;25.43;51.57
18569;BME280;14780;48.316;-1.050;2022-08-05T05:24:42;99416.91;;;25.43;51.40
18569;BME280;14780;48.316;-1.050;2022-08-05T05:27:32;99418.81;;;25.47;51.41
18569;BME280;14780;48.316;-1.050;2022-08-05T05:30:17;99421.28;;;25.44;51.46
18569;BME280;14780;48.316;-1.050;2022-08-05T05:33:04;99424.03;;;25.44;51.42
18569;BME280;14780;48.316;-1.050;2022-08-05T05:35:50;99431.44;;;25.43;51.63
18569;BME280;14780;48.316;-1.050;2022-08-05T05:38:34;99441.28;;;25.44;51.58
18569;BME280;14780;48.316;-1.050;2022-08-05T05:41:19;99430.34;;;25.44;51.64
18569;BME280;14780;48.316;-1.050;2022-08-05T05:44:04;99434.97;;;25.44;51.58
18569;BME280;14780;48.316;-1.050;2022-08-05T05:46:48;99442.09;;;25.45;51.51
18569;BME280;14780;48.316;-1.050;2022-08-05T05:49:33;99435.81;;;25.44;51.50
18569;BME280;14780;48.316;-1.050;2022-08-05T05:52:18;99445.13;;;25.43;51.58
18569;BME280;14780;48.316;-1.050;2022-08-05T05:55:08;99447.56;;;25.45;51.45
18569;BME280;14780;48.316;-1.050;2022-08-05T05:57:53;99454.16;;;25.44;51.44
18569;BME280;14780;48.316;-1.050;2022-08-05T06:00:37;99457.72;;;25.44;51.51
18569;BME280;14780;48.316;-1.050;2022-08-05T06:03:22;99461.84;;;25.47;51.52
18569;BME280;14780;48.316;-1.050;2022-08-05T06:06:07;99452.25;;;25.44;51.50
18569;BME280;14780;48.316;-1.050;2022-08-05T06:08:52;99465.66;;;25.46;51.61
18569;BME280;14780;48.316;-1.050;2022-08-05T06:11:36;99468.13;;;25.47;51.48
18569;BME280;14780;48.316;-1.050;2022-08-05T06:14:21;99467.31;;;25.47;51.57
18569;BME280;14780;48.316;-1.050;2022-08-05T06:17:06;99479.09;;;25.47;51.55
18569;BME280;14780;48.316;-1.050;2022-08-05T06:19:51;99483.47;;;25.48;51.45
18569;BME280;14780;48.316;-1.050;2022-08-05T06:22:36;99478.00;;;25.48;51.55
18569;BME280;14780;48.316;-1.050;2022-08-05T06:25:21;99478.00;;;25.48;51.64
18569;BME280;14780;48.316;-1.050;2022-08-05T06:28:06;99486.22;;;25.48;51.61
18569;BME280;14780;48.316;-1.050;2022-08-05T06:30:50;99490.31;;;25.51;51.34
18569;BME280;14780;48.316;-1.050;2022-08-05T06:33:35;99489.53;;;25.50;51.47
18569;BME280;14780;48.316;-1.050;2022-08-05T06:36:19;99501.81;;;25.53;51.42
18569;BME280;14780;48.316;-1.050;2022-08-05T06:39:05;99498.28;;;25.52;51.40
18569;BME280;14780;48.316;-1.050;2022-08-05T06:41:50;99503.75;;;25.52;51.44
18569;BME280;14780;48.316;-1.050;2022-08-05T06:44:34;99505.13;;;25.55;51.31
18569;BME280;14780;48.316;-1.050;2022-08-05T06:47:19;99508.69;;;25.55;51.38
18569;BME280;14780;48.316;-1.050;2022-08-05T06:50:04;99509.50;;;25.56;51.44
18569;BME280;14780;48.316;-1.050;2022-08-05T06:52:49;99516.63;;;25.57;51.45
18569;BME280;14780;48.316;-1.050;2022-08-05T06:55:34;99514.72;;;25.57;51.26
18569;BME280;14780;48.316;-1.050;2022-08-05T06:58:18;99515.28;;;25.59;51.41
18569;BME280;14780;48.316;-1.050;2022-08-05T07:01:05;99516.91;;;25.60;51.39
18569;BME280;14780;48.316;-1.050;2022-08-05T07:03:50;99516.91;;;25.60;51.29
18569;BME280;14780;48.316;-1.050;2022-08-05T07:06:35;99524.03;;;25.61;51.38
18569;BME280;14780;48.316;-1.050;2022-08-05T07:09:20;99521.84;;;25.63;51.28
18569;BME280;14780;48.316;-1.050;2022-08-05T07:12:05;99522.41;;;25.65;51.35
18569;BME280;14780;48.316;-1.050;2022-08-05T07:14:50;99521.31;;;25.66;51.29
18569;BME280;14780;48.316;-1.050;2022-08-05T07:17:54;99522.94;;;25.67;51.17
18569;BME280;14780;48.316;-1.050;2022-08-05T07:20:39;99530.91;;;25.69;51.28
18569;BME280;14780;48.316;-1.050;2022-08-05T07:23:24;99529.81;;;25.70;51.37
18569;BME280;14780;48.316;-1.050;2022-08-05T07:26:08;99530.34;;;25.72;51.14
18569;BME280;14780;48.316;-1.050;2022-08-05T07:28:53;99538.31;;;25.73;51.23
18569;BME280;14780;48.316;-1.050;2022-08-05T07:31:39;99534.47;;;25.74;51.15
18569;BME280;14780;48.316;-1.050;2022-08-05T07:34:24;99544.06;;;25.77;51.04
18569;BME280;14780;48.316;-1.050;2022-08-05T07:37:09;99560.22;;;25.78;50.96
18569;BME280;14780;48.316;-1.050;2022-08-05T07:39:54;99559.13;;;25.79;51.04
18569;BME280;14780;48.316;-1.050;2022-08-05T07:42:39;99567.06;;;25.81;51.15
18569;BME280;14780;48.316;-1.050;2022-08-05T07:45:23;99562.97;;;25.83;51.06
18569;BME280;14780;48.316;-1.050;2022-08-05T07:48:08;99569.28;;;25.84;51.14
18569;BME280;14780;48.316;-1.050;2022-08-05T07:50:53;99570.34;;;25.88;50.98
18569;BME280;14780;48.316;-1.050;2022-08-05T07:53:37;99584.06;;;25.88;51.02
18569;BME280;14780;48.316;-1.050;2022-08-05T07:56:22;99580.00;;;25.90;51.03
18569;BME280;14780;48.316;-1.050;2022-08-05T07:59:06;99580.53;;;25.92;51.06
18569;BME280;14780;48.316;-1.050;2022-08-05T08:01:52;99573.94;;;25.93;50.91
18569;BME280;14780;48.316;-1.050;2022-08-05T08:04:36;99587.13;;;25.96;51.03
18569;BME280;14780;48.316;-1.050;2022-08-05T08:07:21;99589.59;;;25.98;50.90
18569;BME280;14780;48.316;-1.050;2022-08-05T08:10:06;99603.03;;;25.99;50.90
18569;BME280;14780;48.316;-1.050;2022-08-05T08:12:51;99599.75;;;26.02;50.94
18569;BME280;14780;48.316;-1.050;2022-08-05T08:15:35;99607.69;;;26.04;50.83
18569;BME280;14780;48.316;-1.050;2022-08-05T08:18:20;99607.41;;;26.05;50.94
18569;BME280;14780;48.316;-1.050;2022-08-05T08:21:05;99610.69;;;26.07;50.85
18569;BME280;14780;48.316;-1.050;2022-08-05T08:23:49;99603.03;;;26.09;50.73
18569;BME280;14780;48.316;-1.050;2022-08-05T08:26:34;99606.31;;;26.11;50.68
18569;BME280;14780;48.316;-1.050;2022-08-05T08:29:19;99614.28;;;26.13;50.80
18569;BME280;14780;48.316;-1.050;2022-08-05T08:32:04;99610.44;;;26.14;50.63
18569;BME280;14780;48.316;-1.050;2022-08-05T08:34:50;99613.72;;;26.16;50.62
18569;BME280;14780;48.316;-1.050;2022-08-05T08:37:35;99617.31;;;26.16;50.60
18569;BME280;14780;48.316;-1.050;2022-08-05T08:40:20;99623.34;;;26.18;50.66
18569;BME280;14780;48.316;-1.050;2022-08-05T08:43:05;99619.47;;;26.19;50.58
18569;BME280;14780;48.316;-1.050;2022-08-05T08:45:52;99616.22;;;26.22;50.67
18569;BME280;14780;48.316;-1.050;2022-08-05T08:48:40;99623.03;;;26.25;50.62
18569;BME280;14780;48.316;-1.050;2022-08-05T08:51:27;99624.97;;;26.24;50.54
18569;BME280;14780;48.316;-1.050;2022-08-05T08:54:14;99622.22;;;26.24;50.39
18569;BME280;14780;48.316;-1.050;2022-08-05T08:57:00;99621.13;;;26.25;50.33
18569;BME280;14780;48.316;-1.050;2022-08-05T08:59:45;99628.25;;;26.26;50.43
18569;BME280;14780;48.316;-1.050;2022-08-05T09:02:31;99629.91;;;26.27;50.35
18569;BME280;14780;48.316;-1.050;2022-08-05T09:05:16;99627.69;;;26.29;50.26
18569;BME280;14780;48.316;-1.050;2022-08-05T09:08:01;99624.69;;;26.31;50.35
18569;BME280;14780;48.316;-1.050;2022-08-05T09:10:46;99634.56;;;26.32;50.16
18569;BME280;14780;48.316;-1.050;2022-08-05T09:13:32;99634.28;;;26.33;50.26
18569;BME280;14780;48.316;-1.050;2022-08-05T09:16:17;99633.19;;;26.34;50.26
18569;BME280;14780;48.316;-1.050;2022-08-05T09:19:02;99636.47;;;26.36;50.08
18569;BME280;14780;48.316;-1.050;2022-08-05T09:21:47;99635.41;;;26.37;50.02
18569;BME280;14780;48.316;-1.050;2022-08-05T09:24:31;99639.22;;;26.41;50.12
18569;BME280;14780;48.316;-1.050;2022-08-05T09:27:34;99641.13;;;26.51;50.18
18569;BME280;14780;48.316;-1.050;2022-08-05T09:30:20;99637.00;;;26.43;49.87
18569;BME280;14780;48.316;-1.050;2022-08-05T09:33:05;99637.84;;;26.44;49.83
18569;BME280;14780;48.316;-1.050;2022-08-05T09:36:01;99641.72;;;26.53;49.84
18569;BME280;14780;48.316;-1.050;2022-08-05T09:38:58;99648.03;;;26.53;49.79
18569;BME280;14780;48.316;-1.050;2022-08-05T09:42:03;99644.47;;;26.58;49.64
18569;BME280;14780;48.316;-1.050;2022-08-05T09:44:53;99646.91;;;26.49;49.78
18569;BME280;14780;48.316;-1.050;2022-08-05T09:47:40;99646.91;;;26.49;49.65
18569;BME280;14780;48.316;-1.050;2022-08-05T09:50:36;99651.06;;;26.57;49.58
18569;BME280;14780;48.316;-1.050;2022-08-05T09:53:22;99653.53;;;26.53;49.54
18569;BME280;14780;48.316;-1.050;2022-08-05T09:56:07;99659.00;;;26.53;49.51
18569;BME280;14780;48.316;-1.050;2022-08-05T09:59:08;99659.56;;;26.60;49.63
18569;BME280;14780;48.316;-1.050;2022-08-05T10:01:53;99653.53;;;26.53;49.46
18569;BME280;14780;48.316;-1.050;2022-08-05T10:04:38;99665.03;;;26.55;49.32
18569;BME280;14780;48.316;-1.050;2022-08-05T10:07:25;99662.56;;;26.59;49.36
18569;BME280;14780;48.316;-1.050;2022-08-05T10:13:29;99677.09;;;26.74;49.19
18569;BME280;14780;48.316;-1.050;2022-08-05T10:16:47;99674.91;;;26.81;49.06
18569;BME280;14780;48.316;-1.050;2022-08-05T10:19:32;99671.88;;;26.73;48.96
18569;BME280;14780;48.316;-1.050;2022-08-05T10:22:17;99669.13;;;26.73;48.92
18569;BME280;14780;48.316;-1.050;2022-08-05T10:25:02;99682.59;;;26.74;48.99
18569;BME280;14780;48.316;-1.050;2022-08-05T10:27:47;99684.50;;;26.74;48.84
18569;BME280;14780;48.316;-1.050;2022-08-05T10:30:33;99684.25;;;26.75;48.73
18569;BME280;14780;48.316;-1.050;2022-08-05T10:33:19;99683.69;;;26.73;48.75
18569;BME280;14780;48.316;-1.050;2022-08-05T10:36:06;99691.38;;;26.76;49.05
18569;BME280;14780;48.316;-1.050;2022-08-05T10:38:57;99696.56;;;26.83;48.52
18569;BME280;14780;48.316;-1.050;2022-08-05T10:41:51;99702.88;;;26.83;48.49
18569;BME280;14780;48.316;-1.050;2022-08-05T10:44:42;99703.19;;;26.77;48.56
18569;BME280;14780;48.316;-1.050;2022-08-05T10:47:33;99694.38;;;26.80;48.61
18569;BME280;14780;48.316;-1.050;2022-08-05T10:50:20;99710.59;;;26.81;48.55
18569;BME280;14780;48.316;-1.050;2022-08-05T10:53:37;99707.78;;;27.01;48.38
18569;BME280;14780;48.316;-1.050;2022-08-05T10:56:35;99699.28;;;27.08;48.29
18569;BME280;14780;48.316;-1.050;2022-08-05T10:59:28;99703.13;;;27.02;48.26
18569;BME280;14780;48.316;-1.050;2022-08-05T11:02:14;99713.31;;;26.96;48.30
18569;BME280;14780;48.316;-1.050;2022-08-05T11:05:04;99710.56;;;26.96;48.18
18569;BME280;14780;48.316;-1.050;2022-08-05T11:08:01;99713.56;;;27.00;47.99
18569;BME280;14780;48.316;-1.050;2022-08-05T11:10:46;99719.91;;;26.90;48.09
18569;BME280;14780;48.316;-1.050;2022-08-05T11:13:42;99718.50;;;26.98;48.17
18569;BME280;14780;48.316;-1.050;2022-08-05T11:16:28;99719.38;;;26.88;48.03
18569;BME280;14780;48.316;-1.050;2022-08-05T11:19:27;99727.03;;;26.96;47.91
18569;BME280;14780;48.316;-1.050;2022-08-05T11:22:43;99725.09;;;27.02;47.85
18569;BME280;14780;48.316;-1.050;2022-08-05T11:25:33;99725.94;;;26.92;48.09
18569;BME280;14780;48.316;-1.050;2022-08-05T11:33:52;99722.66;;;26.95;47.93
18569;BME280;14780;48.316;-1.050;2022-08-05T11:36:48;99728.41;;;26.99;47.78
18569;BME280;14780;48.316;-1.050;2022-08-05T11:39:48;99728.41;;;26.99;47.70
18569;BME280;14780;48.316;-1.050;2022-08-05T11:42:34;99724.56;;;26.90;47.94
18569;BME280;14780;48.316;-1.050;2022-08-05T11:45:21;99736.66;;;26.94;47.73
18569;BME280;14780;48.316;-1.050;2022-08-05T11:48:09;99727.00;;;27.01;47.88
18569;BME280;14780;48.316;-1.050;2022-08-05T11:50:54;99742.94;;;26.99;47.90
18569;BME280;14780;48.316;-1.050;2022-08-05T11:53:40;99718.78;;;27.01;48.00
18569;BME280;14780;48.316;-1.050;2022-08-05T11:56:25;99745.69;;;27.04;47.80
18569;BME280;14780;48.316;-1.050;2022-08-05T11:59:23;99734.72;;;27.09;47.38
18569;BME280;14780;48.316;-1.050;2022-08-05T12:02:09;99745.13;;;27.07;47.75
18569;BME280;14780;48.316;-1.050;2022-08-05T12:04:54;99741.28;;;27.08;47.60
18569;BME280;14780;48.316;-1.050;2022-08-05T12:07:39;99745.69;;;27.09;47.58
18569;BME280;14780;48.316;-1.050;2022-08-05T12:10:27;99741.28;;;27.13;47.60
18569;BME280;14780;48.316;-1.050;2022-08-05T12:13:16;99738.28;;;27.15;47.48
18569;BME280;14780;48.316;-1.050;2022-08-05T12:16:00;99746.53;;;27.20;47.22
18569;BME280;14780;48.316;-1.050;2022-08-05T12:18:46;99746.81;;;27.23;47.18
18569;BME280;14780;48.316;-1.050;2022-08-05T12:21:41;99754.75;;;27.25;47.18
18569;BME280;14780;48.316;-1.050;2022-08-05T12:24:26;99748.97;;;27.21;47.23
18569;BME280;14780;48.316;-1.050;2022-08-05T12:27:21;99748.13;;;27.31;47.05
18569;BME280;14780;48.316;-1.050;2022-08-05T12:30:09;99750.34;;;27.29;47.08
18569;BME280;14780;48.316;-1.050;2022-08-05T12:32:54;99753.38;;;27.22;47.16
18569;BME280;14780;48.316;-1.050;2022-08-05T12:35:42;99748.97;;;27.26;47.22
18569;BME280;14780;48.316;-1.050;2022-08-05T12:38:26;99748.41;;;27.29;47.19
18569;BME280;14780;48.316;-1.050;2022-08-05T12:41:13;99743.44;;;27.36;46.98
18569;BME280;14780;48.316;-1.050;2022-08-05T12:44:04;99751.16;;;27.39;46.99
18569;BME280;14780;48.316;-1.050;2022-08-05T12:46:54;99757.97;;;27.47;46.62
18569;BME280;14780;48.316;-1.050;2022-08-05T12:49:44;99748.06;;;27.51;46.70
18569;BME280;14780;48.316;-1.050;2022-08-05T12:52:29;99753.84;;;27.49;46.72
18569;BME280;14780;48.316;-1.050;2022-08-05T12:55:18;99750.50;;;27.57;46.46
18569;BME280;14780;48.316;-1.050;2022-08-05T12:58:03;99755.44;;;27.65;46.72
18569;BME280;14780;48.316;-1.050;2022-08-05T13:00:49;99763.41;;;27.72;46.45
18569;BME280;14780;48.316;-1.050;2022-08-05T13:03:36;99760.34;;;27.78;46.43
18569;BME280;14780;48.316;-1.050;2022-08-05T13:06:21;99755.13;;;27.82;46.35
18569;BME280;14780;48.316;-1.050;2022-08-05T13:09:11;99754.53;;;27.90;46.20
18569;BME280;14780;48.316;-1.050;2022-08-05T13:12:04;99755.28;;;28.00;45.74
18569;BME280;14780;48.316;-1.050;2022-08-05T13:14:57;99752.19;;;28.12;45.78
18569;BME280;14780;48.316;-1.050;2022-08-05T13:17:53;99752.41;;;28.25;45.34
18569;BME280;14780;48.316;-1.050;2022-08-05T13:20:38;99754.53;;;28.38;45.55
18569;BME280;14780;48.316;-1.050;2022-08-05T13:23:23;99758.94;;;28.34;45.37
18569;BME280;14780;48.316;-1.050;2022-08-05T13:26:07;99760.97;;;28.19;45.47
18569;BME280;14780;48.316;-1.050;2022-08-05T13:28:52;99758.03;;;28.49;45.16
18569;BME280;14780;48.316;-1.050;2022-08-05T13:31:37;99759.81;;;28.68;45.17
18569;BME280;14780;48.316;-1.050;2022-08-05T13:34:22;99759.47;;;28.75;44.60
18569;BME280;14780;48.316;-1.050;2022-08-05T13:37:06;99762.38;;;28.88;44.53
18569;BME280;14780;48.316;-1.050;2022-08-05T13:39:52;99768.72;;;28.94;44.41
18569;BME280;14780;48.316;-1.050;2022-08-05T13:42:40;99762.22;;;29.08;44.30
18569;BME280;14780;48.316;-1.050;2022-08-05T13:45:25;99769.22;;;29.24;43.83
18569;BME280;14780;48.316;-1.050;2022-08-05T13:48:10;99762.50;;;29.35;43.57
18569;BME280;14780;48.316;-1.050;2022-08-05T13:50:54;99763.50;;;29.44;43.51
18569;BME280;14780;48.316;-1.050;2022-08-05T13:53:47;99778.78;;;29.60;43.21
18569;BME280;14780;48.316;-1.050;2022-08-05T13:56:32;99761.50;;;29.73;43.19
18569;BME280;14780;48.316;-1.050;2022-08-05T13:59:23;99762.72;;;29.85;42.75
18569;BME280;14780;48.316;-1.050;2022-08-05T14:02:09;99768.94;;;29.96;42.77
18569;BME280;14780;48.316;-1.050;2022-08-05T14:04:55;99767.94;;;30.10;42.62
18569;BME280;14780;48.316;-1.050;2022-08-05T14:07:55;99767.78;;;30.20;42.39
18569;BME280;14780;48.316;-1.050;2022-08-05T14:10:40;99772.06;;;30.31;42.22
18569;BME280;14780;48.316;-1.050;2022-08-05T14:13:24;99773.31;;;30.39;41.89
18569;BME280;14780;48.316;-1.050;2022-08-05T14:16:09;99770.84;;;30.56;41.78
18569;BME280;14780;48.316;-1.050;2022-08-05T14:18:53;99781.28;;;30.77;41.65
18569;BME280;14780;48.316;-1.050;2022-08-05T14:21:38;99780.22;;;30.92;41.09
18569;BME280;14780;48.316;-1.050;2022-08-05T14:24:23;99773.31;;;31.08;40.98
18569;BME280;14780;48.316;-1.050;2022-08-05T14:27:07;99772.16;;;31.27;40.56
18569;BME280;14780;48.316;-1.050;2022-08-05T14:29:52;99777.91;;;31.58;40.23
18569;BME280;14780;48.316;-1.050;2022-08-05T14:32:37;99781.63;;;31.94;39.45
18569;BME280;14780;48.316;-1.050;2022-08-05T14:35:22;99778.50;;;32.22;38.92
18569;BME280;14780;48.316;-1.050;2022-08-05T14:38:07;99777.19;;;32.55;38.72
18569;BME280;14780;48.316;-1.050;2022-08-05T14:40:51;99775.44;;;32.81;37.85
18569;BME280;14780;48.316;-1.050;2022-08-05T14:43:37;99774.69;;;33.11;37.24
18569;BME280;14780;48.316;-1.050;2022-08-05T14:46:23;99775.47;;;33.25;37.14
18569;BME280;14780;48.316;-1.050;2022-08-05T14:49:08;99776.59;;;33.63;36.62
18569;BME280;14780;48.316;-1.050;2022-08-05T14:51:53;99769.66;;;33.83;36.02
18569;BME280;14780;48.316;-1.050;2022-08-05T14:54:38;99772.81;;;34.07;35.81
18569;BME280;14780;48.316;-1.050;2022-08-05T14:57:23;99769.47;;;34.27;35.62